Terminal Aerodrome Forecast
Issued by NWS

Home | Current Version | Previous Version | Graphics & Text | Print | Product List | Glossary On
Versions: 1 2 3 4 5 6 7 8 9 10 11 12 13 14 15 16 17 18
000
FTUS42 KMHX 301737
TAFOAJ
TAF
KOAJ 301737Z 3018/3118 16005KT P6SM SCT050
     FM310600 00000KT 6SM BR SCT008 SCT020
     FM311230 20005KT P6SM SCT040
      AMD LTD TO CLD VIS AND WIND=

USA.gov is the U.S. government's official web portal to all federal, state and local government web resources and services.